sensor_id;sensor_type;location;lat;lon;timestamp;pressure;altitude;pressure_sealevel;temperature;humidity
68941;BME280;55982;51.476;7.552;2024-01-10T00:01:15;101144.94;;;-5.35;100.00
68941;BME280;55982;51.476;7.552;2024-01-10T00:03:41;101144.34;;;-5.47;100.00
68941;BME280;55982;51.476;7.552;2024-01-10T00:06:06;101135.56;;;-5.52;100.00
68941;BME280;55982;51.476;7.552;2024-01-10T00:08:31;101137.41;;;-5.66;100.00
68941;BME280;55982;51.476;7.552;2024-01-10T00:10:56;101129.34;;;-5.74;100.00
68941;BME280;55982;51.476;7.552;2024-01-10T00:13:22;101141.69;;;-5.81;100.00
68941;BME280;55982;51.476;7.552;2024-01-10T00:15:47;101133.41;;;-5.45;100.00
68941;BME280;55982;51.476;7.552;2024-01-10T00:18:13;101133.66;;;-5.57;100.00
68941;BME280;55982;51.476;7.552;2024-01-10T00:20:38;101132.22;;;-5.51;100.00
68941;BME280;55982;51.476;7.552;2024-01-10T00:23:03;101137.66;;;-5.62;100.00
68941;BME280;55982;51.476;7.552;2024-01-10T00:25:29;101131.41;;;-5.67;100.00
68941;BME280;55982;51.476;7.552;2024-01-10T00:27:54;101132.44;;;-5.47;100.00
68941;BME280;55982;51.476;7.552;2024-01-10T00:30:19;101127.03;;;-5.37;100.00
68941;BME280;55982;51.476;7.552;2024-01-10T00:32:45;101120.91;;;-5.40;100.00
68941;BME280;55982;51.476;7.552;2024-01-10T00:35:10;101115.34;;;-5.49;100.00
68941;BME280;55982;51.476;7.552;2024-01-10T00:37:36;101119.31;;;-5.38;100.00
68941;BME280;55982;51.476;7.552;2024-01-10T00:40:01;101115.34;;;-5.49;100.00
68941;BME280;55982;51.476;7.552;2024-01-10T00:42:26;101109.59;;;-5.62;100.00
68941;BME280;55982;51.476;7.552;2024-01-10T00:44:52;101113.44;;;-5.70;100.00
68941;BME280;55982;51.476;7.552;2024-01-10T00:47:17;101115.19;;;-5.69;100.00
68941;BME280;55982;51.476;7.552;2024-01-10T00:49:42;101113.56;;;-5.67;100.00
68941;BME280;55982;51.476;7.552;2024-01-10T00:52:07;101099.25;;;-5.65;100.00
68941;BME280;55982;51.476;7.552;2024-01-10T00:54:33;101107.88;;;-5.79;100.00
68941;BME280;55982;51.476;7.552;2024-01-10T00:56:58;101104.97;;;-5.86;100.00
68941;BME280;55982;51.476;7.552;2024-01-10T00:59:23;101105.06;;;-5.67;100.00
68941;BME280;55982;51.476;7.552;2024-01-10T01:01:48;101103.63;;;-5.62;100.00
68941;BME280;55982;51.476;7.552;2024-01-10T01:04:14;101109.94;;;-5.55;100.00
68941;BME280;55982;51.476;7.552;2024-01-10T01:06:39;101102.91;;;-5.60;100.00
68941;BME280;55982;51.476;7.552;2024-01-10T01:09:04;101100.84;;;-5.67;100.00
68941;BME280;55982;51.476;7.552;2024-01-10T01:11:29;101092.25;;;-5.69;100.00
68941;BME280;55982;51.476;7.552;2024-01-10T01:13:54;101087.16;;;-5.69;100.00
68941;BME280;55982;51.476;7.552;2024-01-10T01:16:20;101094.00;;;-5.68;100.00
68941;BME280;55982;51.476;7.552;2024-01-10T01:18:45;101095.59;;;-5.70;100.00
68941;BME280;55982;51.476;7.552;2024-01-10T01:21:11;101087.69;;;-5.74;100.00
68941;BME280;55982;51.476;7.552;2024-01-10T01:23:36;101086.84;;;-5.75;100.00
68941;BME280;55982;51.476;7.552;2024-01-10T01:26:01;101081.91;;;-5.72;100.00
68941;BME280;55982;51.476;7.552;2024-01-10T01:28:27;101084.94;;;-5.79;100.00
68941;BME280;55982;51.476;7.552;2024-01-10T01:30:52;101088.94;;;-5.84;100.00
68941;BME280;55982;51.476;7.552;2024-01-10T01:33:17;101081.16;;;-5.87;100.00
68941;BME280;55982;51.476;7.552;2024-01-10T01:35:43;101084.94;;;-5.79;100.00
68941;BME280;55982;51.476;7.552;2024-01-10T01:38:08;101074.47;;;-5.85;100.00
68941;BME280;55982;51.476;7.552;2024-01-10T01:40:33;101076.25;;;-5.82;100.00
68941;BME280;55982;51.476;7.552;2024-01-10T01:42:58;101074.38;;;-5.86;100.00
68941;BME280;55982;51.476;7.552;2024-01-10T01:45:24;101069.44;;;-5.99;100.00
68941;BME280;55982;51.476;7.552;2024-01-10T01:47:49;101069.91;;;-6.06;100.00
68941;BME280;55982;51.476;7.552;2024-01-10T01:50:14;101066.41;;;-6.08;100.00
68941;BME280;55982;51.476;7.552;2024-01-10T01:52:40;101074.75;;;-6.11;100.00
68941;BME280;55982;51.476;7.552;2024-01-10T01:55:06;101070.50;;;-5.96;100.00
68941;BME280;55982;51.476;7.552;2024-01-10T01:57:32;101074.28;;;-5.88;100.00
68941;BME280;55982;51.476;7.552;2024-01-10T01:59:58;101074.84;;;-5.93;100.00
68941;BME280;55982;51.476;7.552;2024-01-10T02:02:24;101070.16;;;-6.02;100.00
68941;BME280;55982;51.476;7.552;2024-01-10T02:04:49;101065.06;;;-6.02;100.00
68941;BME280;55982;51.476;7.552;2024-01-10T02:07:15;101060.09;;;-5.83;100.00
68941;BME280;55982;51.476;7.552;2024-01-10T02:09:40;101054.84;;;-5.86;100.00
68941;BME280;55982;51.476;7.552;2024-01-10T02:12:06;101056.31;;;-5.91;100.00
68941;BME280;55982;51.476;7.552;2024-01-10T02:14:31;101058.44;;;-5.82;100.00
68941;BME280;55982;51.476;7.552;2024-01-10T02:16:56;101052.47;;;-5.99;100.00
68941;BME280;55982;51.476;7.552;2024-01-10T02:19:22;101050.91;;;-6.13;100.00
68941;BME280;55982;51.476;7.552;2024-01-10T02:21:48;101057.59;;;-6.15;100.00
68941;BME280;55982;51.476;7.552;2024-01-10T02:24:13;101058.44;;;-6.14;100.00
68941;BME280;55982;51.476;7.552;2024-01-10T02:26:39;101060.75;;;-6.19;100.00
68941;BME280;55982;51.476;7.552;2024-01-10T02:29:04;101052.78;;;-6.25;100.00
68941;BME280;55982;51.476;7.552;2024-01-10T02:31:29;101050.69;;;-6.32;100.00
68941;BME280;55982;51.476;7.552;2024-01-10T02:33:54;101042.34;;;-6.29;100.00
68941;BME280;55982;51.476;7.552;2024-01-10T02:36:20;101049.13;;;-6.14;100.00
68941;BME280;55982;51.476;7.552;2024-01-10T02:38:45;101041.56;;;-6.12;100.00
68941;BME280;55982;51.476;7.552;2024-01-10T02:41:10;101043.00;;;-6.17;100.00
68941;BME280;55982;51.476;7.552;2024-01-10T02:43:35;101041.97;;;-6.21;100.00
68941;BME280;55982;51.476;7.552;2024-01-10T02:46:00;101040.94;;;-6.08;100.00
68941;BME280;55982;51.476;7.552;2024-01-10T02:48:26;101036.56;;;-6.11;100.00
68941;BME280;55982;51.476;7.552;2024-01-10T02:50:51;101043.56;;;-6.23;100.00
68941;BME280;55982;51.476;7.552;2024-01-10T02:53:16;101044.69;;;-6.34;100.00
68941;BME280;55982;51.476;7.552;2024-01-10T02:55:42;101044.59;;;-6.19;100.00
68941;BME280;55982;51.476;7.552;2024-01-10T02:58:08;101046.56;;;-6.30;100.00
68941;BME280;55982;51.476;7.552;2024-01-10T03:00:33;101047.84;;;-6.38;100.00
68941;BME280;55982;51.476;7.552;2024-01-10T03:02:58;101030.13;;;-6.36;100.00
68941;BME280;55982;51.476;7.552;2024-01-10T03:05:23;101038.94;;;-6.46;100.00
68941;BME280;55982;51.476;7.552;2024-01-10T03:07:49;101029.19;;;-6.53;100.00
68941;BME280;55982;51.476;7.552;2024-01-10T03:10:14;101019.00;;;-6.53;100.00
68941;BME280;55982;51.476;7.552;2024-01-10T03:12:39;101014.06;;;-6.66;100.00
68941;BME280;55982;51.476;7.552;2024-01-10T03:15:05;101016.41;;;-6.85;100.00
68941;BME280;55982;51.476;7.552;2024-01-10T03:17:31;101012.28;;;-6.83;100.00
68941;BME280;55982;51.476;7.552;2024-01-10T03:19:58;101015.00;;;-6.80;100.00
68941;BME280;55982;51.476;7.552;2024-01-10T03:22:24;101013.09;;;-6.84;100.00
68941;BME280;55982;51.476;7.552;2024-01-10T03:24:49;101012.34;;;-6.67;100.00
68941;BME280;55982;51.476;7.552;2024-01-10T03:27:14;101015.66;;;-6.68;100.00
68941;BME280;55982;51.476;7.552;2024-01-10T03:29:39;101012.00;;;-6.73;100.00
68941;BME280;55982;51.476;7.552;2024-01-10T03:32:05;101007.69;;;-6.74;100.00
68941;BME280;55982;51.476;7.552;2024-01-10T03:34:30;101003.03;;;-6.67;100.00
68941;BME280;55982;51.476;7.552;2024-01-10T03:36:56;101010.91;;;-6.62;100.00
68941;BME280;55982;51.476;7.552;2024-01-10T03:39:21;101010.00;;;-6.63;100.00
68941;BME280;55982;51.476;7.552;2024-01-10T03:41:46;101011.59;;;-6.65;100.00
68941;BME280;55982;51.476;7.552;2024-01-10T03:44:12;101016.41;;;-6.55;100.00
68941;BME280;55982;51.476;7.552;2024-01-10T03:46:37;101004.19;;;-6.45;100.00
68941;BME280;55982;51.476;7.552;2024-01-10T03:49:02;100999.38;;;-6.39;100.00
68941;BME280;55982;51.476;7.552;2024-01-10T03:51:28;101012.03;;;-6.41;100.00
68941;BME280;55982;51.476;7.552;2024-01-10T03:53:54;101009.97;;;-6.48;100.00
68941;BME280;55982;51.476;7.552;2024-01-10T03:56:20;101006.63;;;-6.47;100.00
68941;BME280;55982;51.476;7.552;2024-01-10T03:58:45;101011.38;;;-6.53;100.00
68941;BME280;55982;51.476;7.552;2024-01-10T04:01:13;101017.75;;;-6.61;100.00
68941;BME280;55982;51.476;7.552;2024-01-10T04:03:39;101006.00;;;-6.59;100.00
68941;BME280;55982;51.476;7.552;2024-01-10T04:06:07;101007.28;;;-6.35;100.00
68941;BME280;55982;51.476;7.552;2024-01-10T04:08:32;101004.59;;;-6.38;100.00
68941;BME280;55982;51.476;7.552;2024-01-10T04:10:57;101009.84;;;-6.19;100.00
68941;BME280;55982;51.476;7.552;2024-01-10T04:13:23;101009.09;;;-6.16;100.00
68941;BME280;55982;51.476;7.552;2024-01-10T04:15:48;100998.44;;;-6.25;100.00
68941;BME280;55982;51.476;7.552;2024-01-10T04:18:14;101001.31;;;-6.03;100.00
68941;BME280;55982;51.476;7.552;2024-01-10T04:20:39;101009.53;;;-6.25;100.00
68941;BME280;55982;51.476;7.552;2024-01-10T04:23:04;101014.75;;;-6.22;100.00
68941;BME280;55982;51.476;7.552;2024-01-10T04:25:29;101018.25;;;-6.20;100.00
68941;BME280;55982;51.476;7.552;2024-01-10T04:27:54;101021.28;;;-6.11;100.00
68941;BME280;55982;51.476;7.552;2024-01-10T04:30:20;101008.88;;;-6.05;100.00
68941;BME280;55982;51.476;7.552;2024-01-10T04:32:46;101008.47;;;-5.96;100.00
68941;BME280;55982;51.476;7.552;2024-01-10T04:35:11;101006.50;;;-6.02;100.00
68941;BME280;55982;51.476;7.552;2024-01-10T04:37:36;101010.84;;;-5.99;100.00
68941;BME280;55982;51.476;7.552;2024-01-10T04:40:02;101014.75;;;-5.90;100.00
68941;BME280;55982;51.476;7.552;2024-01-10T04:42:27;101007.84;;;-6.08;100.00
68941;BME280;55982;51.476;7.552;2024-01-10T04:44:52;101015.41;;;-6.10;100.00
68941;BME280;55982;51.476;7.552;2024-01-10T04:47:18;101007.50;;;-6.14;100.00
68941;BME280;55982;51.476;7.552;2024-01-10T04:49:43;101016.84;;;-6.15;100.00
68941;BME280;55982;51.476;7.552;2024-01-10T04:52:08;101018.03;;;-6.08;100.00
68941;BME280;55982;51.476;7.552;2024-01-10T04:54:33;101017.13;;;-6.09;100.00
68941;BME280;55982;51.476;7.552;2024-01-10T04:56:59;101008.97;;;-6.19;100.00
68941;BME280;55982;51.476;7.552;2024-01-10T04:59:24;101011.03;;;-6.28;100.00
68941;BME280;55982;51.476;7.552;2024-01-10T05:01:49;101015.72;;;-6.36;100.00
68941;BME280;55982;51.476;7.552;2024-01-10T05:04:15;101004.25;;;-6.28;100.00
68941;BME280;55982;51.476;7.552;2024-01-10T05:06:40;100998.69;;;-6.21;100.00
68941;BME280;55982;51.476;7.552;2024-01-10T05:09:06;100999.97;;;-6.29;100.00
68941;BME280;55982;51.476;7.552;2024-01-10T05:11:31;100997.25;;;-6.32;100.00
68941;BME280;55982;51.476;7.552;2024-01-10T05:13:57;101000.84;;;-6.28;100.00
68941;BME280;55982;51.476;7.552;2024-01-10T05:16:22;101005.84;;;-6.30;100.00
68941;BME280;55982;51.476;7.552;2024-01-10T05:18:47;100998.69;;;-6.37;100.00
68941;BME280;55982;51.476;7.552;2024-01-10T05:21:12;101002.97;;;-6.20;100.00
68941;BME280;55982;51.476;7.552;2024-01-10T05:23:38;100997.41;;;-6.29;100.00
68941;BME280;55982;51.476;7.552;2024-01-10T05:26:06;101005.13;;;-6.27;100.00
68941;BME280;55982;51.476;7.552;2024-01-10T05:28:31;101002.34;;;-6.32;100.00
68941;BME280;55982;51.476;7.552;2024-01-10T05:30:57;100994.94;;;-6.27;100.00
68941;BME280;55982;51.476;7.552;2024-01-10T05:33:22;100999.16;;;-6.28;100.00
68941;BME280;55982;51.476;7.552;2024-01-10T05:35:47;100995.84;;;-6.27;100.00
68941;BME280;55982;51.476;7.552;2024-01-10T05:38:13;100992.25;;;-6.14;100.00
68941;BME280;55982;51.476;7.552;2024-01-10T05:40:38;100998.06;;;-6.17;100.00
68941;BME280;55982;51.476;7.552;2024-01-10T05:43:03;100993.13;;;-6.14;100.00
68941;BME280;55982;51.476;7.552;2024-01-10T05:45:29;100995.97;;;-6.24;100.00
68941;BME280;55982;51.476;7.552;2024-01-10T05:47:54;100993.78;;;-6.34;100.00
68941;BME280;55982;51.476;7.552;2024-01-10T05:50:20;100988.00;;;-6.30;100.00
68941;BME280;55982;51.476;7.552;2024-01-10T05:52:45;100999.16;;;-6.28;100.00
68941;BME280;55982;51.476;7.552;2024-01-10T05:55:11;100996.78;;;-6.25;100.00
68941;BME280;55982;51.476;7.552;2024-01-10T05:57:36;101000.28;;;-6.23;100.00
68941;BME280;55982;51.476;7.552;2024-01-10T06:00:01;100994.06;;;-6.28;100.00
68941;BME280;55982;51.476;7.552;2024-01-10T06:02:28;101008.63;;;-6.25;100.00
68941;BME280;55982;51.476;7.552;2024-01-10T06:04:53;100998.19;;;-6.30;100.00
68941;BME280;55982;51.476;7.552;2024-01-10T06:07:19;100987.78;;;-6.18;100.00
68941;BME280;55982;51.476;7.552;2024-01-10T06:09:45;100988.97;;;-6.12;100.00
68941;BME280;55982;51.476;7.552;2024-01-10T06:12:11;100994.38;;;-6.22;100.00
68941;BME280;55982;51.476;7.552;2024-01-10T06:14:36;100994.25;;;-6.25;100.00
68941;BME280;55982;51.476;7.552;2024-01-10T06:17:02;100995.50;;;-6.33;100.00
68941;BME280;55982;51.476;7.552;2024-01-10T06:19:29;100998.06;;;-6.33;100.00
68941;BME280;55982;51.476;7.552;2024-01-10T06:21:54;100993.78;;;-6.34;100.00
68941;BME280;55982;51.476;7.552;2024-01-10T06:24:19;100995.50;;;-6.33;100.00
68941;BME280;55982;51.476;7.552;2024-01-10T06:26:45;100990.75;;;-6.27;100.00
68941;BME280;55982;51.476;7.552;2024-01-10T06:29:10;100990.31;;;-6.18;100.00
68941;BME280;55982;51.476;7.552;2024-01-10T06:31:35;100993.91;;;-6.31;100.00
68941;BME280;55982;51.476;7.552;2024-01-10T06:34:01;101003.78;;;-6.37;100.00
68941;BME280;55982;51.476;7.552;2024-01-10T06:36:26;100998.88;;;-6.34;100.00
68941;BME280;55982;51.476;7.552;2024-01-10T06:38:51;101001.22;;;-6.37;100.00
68941;BME280;55982;51.476;7.552;2024-01-10T06:41:16;101009.34;;;-6.44;100.00
68941;BME280;55982;51.476;7.552;2024-01-10T06:43:42;101010.47;;;-6.39;100.00
68941;BME280;55982;51.476;7.552;2024-01-10T06:46:07;101009.56;;;-6.39;100.00
68941;BME280;55982;51.476;7.552;2024-01-10T06:48:32;101009.19;;;-6.31;100.00
68941;BME280;55982;51.476;7.552;2024-01-10T06:50:58;100999.78;;;-6.32;100.00
68941;BME280;55982;51.476;7.552;2024-01-10T06:53:23;100998.13;;;-6.31;100.00
68941;BME280;55982;51.476;7.552;2024-01-10T06:55:49;100993.91;;;-6.31;100.00
68941;BME280;55982;51.476;7.552;2024-01-10T06:58:14;100993.91;;;-6.31;100.00
68941;BME280;55982;51.476;7.552;2024-01-10T07:00:39;100998.38;;;-6.27;100.00
68941;BME280;55982;51.476;7.552;2024-01-10T07:03:04;100996.88;;;-6.23;100.00
68941;BME280;55982;51.476;7.552;2024-01-10T07:05:30;100997.75;;;-6.23;100.00
68941;BME280;55982;51.476;7.552;2024-01-10T07:07:59;101004.44;;;-6.25;100.00
68941;BME280;55982;51.476;7.552;2024-01-10T07:10:28;101015.06;;;-6.32;100.00
68941;BME280;55982;51.476;7.552;2024-01-10T07:12:54;101008.38;;;-6.30;100.00
68941;BME280;55982;51.476;7.552;2024-01-10T07:15:19;100995.66;;;-6.30;100.00
68941;BME280;55982;51.476;7.552;2024-01-10T07:17:44;100999.66;;;-6.35;100.00
68941;BME280;55982;51.476;7.552;2024-01-10T07:20:10;101000.81;;;-6.44;100.00
68941;BME280;55982;51.476;7.552;2024-01-10T07:22:37;100995.88;;;-6.41;100.00
68941;BME280;55982;51.476;7.552;2024-01-10T07:25:04;100989.75;;;-6.45;100.00
68941;BME280;55982;51.476;7.552;2024-01-10T07:27:31;100999.16;;;-6.44;100.00
68941;BME280;55982;51.476;7.552;2024-01-10T07:29:56;100997.41;;;-6.45;100.00
68941;BME280;55982;51.476;7.552;2024-01-10T07:32:22;100999.00;;;-6.47;100.00
68941;BME280;55982;51.476;7.552;2024-01-10T07:34:47;101004.06;;;-6.47;100.00
68941;BME280;55982;51.476;7.552;2024-01-10T07:37:13;101007.91;;;-6.55;100.00
68941;BME280;55982;51.476;7.552;2024-01-10T07:39:38;101001.19;;;-6.53;100.00
68941;BME280;55982;51.476;7.552;2024-01-10T07:42:03;101011.38;;;-6.53;100.00
68941;BME280;55982;51.476;7.552;2024-01-10T07:44:29;101012.81;;;-6.58;100.00
68941;BME280;55982;51.476;7.552;2024-01-10T07:46:54;101004.72;;;-6.51;100.00
68941;BME280;55982;51.476;7.552;2024-01-10T07:49:20;101008.53;;;-6.43;100.00
68941;BME280;55982;51.476;7.552;2024-01-10T07:51:46;101005.53;;;-6.36;100.00
68941;BME280;55982;51.476;7.552;2024-01-10T07:54:12;101009.19;;;-6.31;100.00
68941;BME280;55982;51.476;7.552;2024-01-10T07:56:37;100993.53;;;-6.22;100.00
68941;BME280;55982;51.476;7.552;2024-01-10T07:59:03;100992.66;;;-6.23;100.00
68941;BME280;55982;51.476;7.552;2024-01-10T08:01:29;100992.97;;;-6.17;100.00
68941;BME280;55982;51.476;7.552;2024-01-10T08:03:54;100991.53;;;-6.12;100.00
68941;BME280;55982;51.476;7.552;2024-01-10T08:06:20;100999.66;;;-6.19;100.00
68941;BME280;55982;51.476;7.552;2024-01-10T08:08:49;100987.56;;;-6.23;100.00
68941;BME280;55982;51.476;7.552;2024-01-10T08:11:14;100998.28;;;-5.96;100.00
68941;BME280;55982;51.476;7.552;2024-01-10T08:13:39;100994.59;;;-5.51;100.00
68941;BME280;55982;51.476;7.552;2024-01-10T08:16:05;100994.75;;;-5.13;100.00
68941;BME280;55982;51.476;7.552;2024-01-10T08:18:33;100994.50;;;-4.65;100.00
68941;BME280;55982;51.476;7.552;2024-01-10T08:20:58;100997.22;;;-4.24;100.00
68941;BME280;55982;51.476;7.552;2024-01-10T08:23:23;100998.63;;;-3.73;100.00
68941;BME280;55982;51.476;7.552;2024-01-10T08:25:48;100991.19;;;-3.48;100.00
68941;BME280;55982;51.476;7.552;2024-01-10T08:28:14;100995.38;;;-3.07;100.00
68941;BME280;55982;51.476;7.552;2024-01-10T08:30:39;100990.25;;;-3.07;100.00
68941;BME280;55982;51.476;7.552;2024-01-10T08:33:05;100983.69;;;-2.58;100.00
68941;BME280;55982;51.476;7.552;2024-01-10T08:37:55;100980.00;;;-2.19;100.00
68941;BME280;55982;51.476;7.552;2024-01-10T08:40:20;100987.16;;;-3.00;100.00
68941;BME280;55982;51.476;7.552;2024-01-10T08:42:50;100986.94;;;-2.62;100.00
68941;BME280;55982;51.476;7.552;2024-01-10T08:45:15;100986.56;;;-3.15;100.00
68941;BME280;55982;51.476;7.552;2024-01-10T08:47:40;100980.97;;;-3.05;100.00
68941;BME280;55982;51.476;7.552;2024-01-10T08:50:06;100988.06;;;-2.32;100.00
68941;BME280;55982;51.476;7.552;2024-01-10T08:52:34;100995.38;;;-2.19;100.00
68941;BME280;55982;51.476;7.552;2024-01-10T08:54:59;100990.63;;;-2.32;100.00
68941;BME280;55982;51.476;7.552;2024-01-10T08:57:24;100995.91;;;-1.56;100.00
68941;BME280;55982;51.476;7.552;2024-01-10T08:59:52;101001.81;;;-1.59;100.00
68941;BME280;55982;51.476;7.552;2024-01-10T09:02:17;101009.53;;;-1.57;100.00
68941;BME280;55982;51.476;7.552;2024-01-10T09:04:42;101006.28;;;-1.53;100.00
68941;BME280;55982;51.476;7.552;2024-01-10T09:07:07;101011.53;;;-1.50;100.00
68941;BME280;55982;51.476;7.552;2024-01-10T09:09:34;101013.50;;;-0.90;100.00
68941;BME280;55982;51.476;7.552;2024-01-10T09:11:59;101006.91;;;-0.82;99.36
68941;BME280;55982;51.476;7.552;2024-01-10T09:14:25;101012.47;;;-0.40;95.68
68941;BME280;55982;51.476;7.552;2024-01-10T09:16:50;101016.81;;;-0.10;92.43
68941;BME280;55982;51.476;7.552;2024-01-10T09:19:15;101013.63;;;-0.87;93.33
68941;BME280;55982;51.476;7.552;2024-01-10T09:21:40;101013.81;;;-0.25;93.32
68941;BME280;55982;51.476;7.552;2024-01-10T09:24:06;101005.88;;;-0.32;90.63
68941;BME280;55982;51.476;7.552;2024-01-10T09:26:34;101008.94;;;-1.00;91.69
68941;BME280;55982;51.476;7.552;2024-01-10T09:28:59;101006.00;;;0.33;91.19
68941;BME280;55982;51.476;7.552;2024-01-10T09:31:24;101000.16;;;0.71;88.85
68941;BME280;55982;51.476;7.552;2024-01-10T09:33:49;101001.97;;;0.43;88.81
68941;BME280;55982;51.476;7.552;2024-01-10T09:36:15;101001.13;;;1.11;86.69
68941;BME280;55982;51.476;7.552;2024-01-10T09:38:40;101010.41;;;1.04;80.99
68941;BME280;55982;51.476;7.552;2024-01-10T09:41:05;101011.94;;;1.70;83.31
68941;BME280;55982;51.476;7.552;2024-01-10T09:43:31;101016.16;;;0.60;80.15
68941;BME280;55982;51.476;7.552;2024-01-10T09:45:57;101022.22;;;-0.02;83.88
68941;BME280;55982;51.476;7.552;2024-01-10T09:48:23;101016.81;;;-0.67;85.82
68941;BME280;55982;51.476;7.552;2024-01-10T09:50:48;101018.78;;;0.94;85.34
68941;BME280;55982;51.476;7.552;2024-01-10T09:53:22;101022.13;;;1.27;81.02
68941;BME280;55982;51.476;7.552;2024-01-10T09:55:49;101018.53;;;2.40;77.36
68941;BME280;55982;51.476;7.552;2024-01-10T09:58:14;101017.25;;;2.63;78.57
68941;BME280;55982;51.476;7.552;2024-01-10T10:00:39;101017.00;;;0.93;77.96
68941;BME280;55982;51.476;7.552;2024-01-10T10:03:07;101011.03;;;0.94;78.73
68941;BME280;55982;51.476;7.552;2024-01-10T10:05:32;101019.34;;;1.18;77.91
68941;BME280;55982;51.476;7.552;2024-01-10T10:07:59;101008.78;;;2.27;76.35
68941;BME280;55982;51.476;7.552;2024-01-10T10:10:24;101022.22;;;3.58;71.33
68941;BME280;55982;51.476;7.552;2024-01-10T10:12:53;101023.69;;;2.86;70.54
68941;BME280;55982;51.476;7.552;2024-01-10T10:15:19;101010.97;;;2.50;70.99
68941;BME280;55982;51.476;7.552;2024-01-10T10:17:46;101012.78;;;2.56;72.50
68941;BME280;55982;51.476;7.552;2024-01-10T10:20:13;101018.91;;;2.15;71.09
68941;BME280;55982;51.476;7.552;2024-01-10T10:22:39;101016.00;;;2.92;71.09
68941;BME280;55982;51.476;7.552;2024-01-10T10:25:04;101020.22;;;3.39;70.19
68941;BME280;55982;51.476;7.552;2024-01-10T10:27:30;101010.88;;;3.50;68.66
68941;BME280;55982;51.476;7.552;2024-01-10T10:29:55;101019.72;;;3.64;69.75
68941;BME280;55982;51.476;7.552;2024-01-10T10:32:20;101017.34;;;3.23;67.76
68941;BME280;55982;51.476;7.552;2024-01-10T10:34:45;101008.41;;;3.01;67.89
68941;BME280;55982;51.476;7.552;2024-01-10T10:37:11;101005.50;;;2.83;67.88
68941;BME280;55982;51.476;7.552;2024-01-10T10:39:36;100993.53;;;3.42;67.63
68941;BME280;55982;51.476;7.552;2024-01-10T10:42:03;100987.75;;;2.52;69.33
68941;BME280;55982;51.476;7.552;2024-01-10T10:44:29;100991.03;;;2.42;69.36
68941;BME280;55982;51.476;7.552;2024-01-10T10:46:59;100993.69;;;2.97;68.56
68941;BME280;55982;51.476;7.552;2024-01-10T10:49:28;100995.72;;;3.16;68.88
68941;BME280;55982;51.476;7.552;2024-01-10T10:51:57;100986.94;;;1.28;73.69
68941;BME280;55982;51.476;7.552;2024-01-10T10:54:22;100987.03;;;1.32;74.99
68941;BME280;55982;51.476;7.552;2024-01-10T10:56:48;100988.81;;;-0.01;78.20
68941;BME280;55982;51.476;7.552;2024-01-10T10:59:16;100987.28;;;-0.52;84.44
68941;BME280;55982;51.476;7.552;2024-01-10T11:01:44;100989.97;;;-0.77;90.70
68941;BME280;55982;51.476;7.552;2024-01-10T11:04:11;100996.56;;;-0.85;91.64
68941;BME280;55982;51.476;7.552;2024-01-10T11:06:38;100991.97;;;-0.95;92.68
68941;BME280;55982;51.476;7.552;2024-01-10T11:09:05;100997.75;;;-1.02;94.15
68941;BME280;55982;51.476;7.552;2024-01-10T11:17:07;100993.69;;;-0.67;95.30
68941;BME280;55982;51.476;7.552;2024-01-10T11:22:36;100995.00;;;-0.80;91.75
68941;BME280;55982;51.476;7.552;2024-01-10T11:25:06;100989.31;;;-0.98;92.72
68941;BME280;55982;51.476;7.552;2024-01-10T11:27:31;100993.81;;;-0.63;93.81
68941;BME280;55982;51.476;7.552;2024-01-10T11:29:59;100987.59;;;-0.43;95.08
68941;BME280;55982;51.476;7.552;2024-01-10T11:32:25;100983.88;;;-0.52;92.89
68941;BME280;55982;51.476;7.552;2024-01-10T11:34:55;100983.22;;;-0.45;92.30
68941;BME280;55982;51.476;7.552;2024-01-10T11:37:22;100980.69;;;-0.44;90.23
68941;BME280;55982;51.476;7.552;2024-01-10T11:39:47;100976.75;;;-0.61;89.57
68941;BME280;55982;51.476;7.552;2024-01-10T11:42:23;100967.75;;;-0.47;89.09
68941;BME280;55982;51.476;7.552;2024-01-10T11:44:49;100977.19;;;-0.46;91.00
68941;BME280;55982;51.476;7.552;2024-01-10T11:47:15;100972.41;;;-0.34;88.12
68941;BME280;55982;51.476;7.552;2024-01-10T11:49:40;100959.50;;;-0.37;87.37
68941;BME280;55982;51.476;7.552;2024-01-10T11:52:06;100961.44;;;-0.58;87.71
68941;BME280;55982;51.476;7.552;2024-01-10T11:54:38;100953.84;;;-0.53;88.91
68941;BME280;55982;51.476;7.552;2024-01-10T11:57:14;100951.78;;;-0.37;89.72
68941;BME280;55982;51.476;7.552;2024-01-10T11:59:40;100957.69;;;-0.39;91.18
68941;BME280;55982;51.476;7.552;2024-01-10T12:02:06;100958.47;;;-0.42;89.38
68941;BME280;55982;51.476;7.552;2024-01-10T12:04:32;100956.47;;;-0.22;90.16
68941;BME280;55982;51.476;7.552;2024-01-10T12:06:57;100964.31;;;-0.18;88.71
68941;BME280;55982;51.476;7.552;2024-01-10T12:09:23;100961.53;;;0.06;87.97
68941;BME280;55982;51.476;7.552;2024-01-10T12:11:49;100964.50;;;-0.12;86.56
68941;BME280;55982;51.476;7.552;2024-01-10T12:14:14;100969.88;;;-0.32;85.21
68941;BME280;55982;51.476;7.552;2024-01-10T12:16:40;100960.84;;;-0.20;86.67
68941;BME280;55982;51.476;7.552;2024-01-10T12:19:05;100961.16;;;-0.08;87.96
68941;BME280;55982;51.476;7.552;2024-01-10T12:21:30;100970.69;;;-0.04;87.90
68941;BME280;55982;51.476;7.552;2024-01-10T12:23:55;100967.31;;;-0.03;86.07
68941;BME280;55982;51.476;7.552;2024-01-10T12:26:21;100959.94;;;0.10;86.74
68941;BME280;55982;51.476;7.552;2024-01-10T12:28:56;100968.22;;;-0.01;86.19
68941;BME280;55982;51.476;7.552;2024-01-10T12:31:21;100959.94;;;0.10;87.10
68941;BME280;55982;51.476;7.552;2024-01-10T12:33:50;100960.81;;;0.12;85.49
68941;BME280;55982;51.476;7.552;2024-01-10T12:36:16;100953.25;;;0.16;85.44
68941;BME280;55982;51.476;7.552;2024-01-10T12:38:42;100958.19;;;0.09;87.94
68941;BME280;55982;51.476;7.552;2024-01-10T12:41:07;100957.84;;;-0.04;85.32
68941;BME280;55982;51.476;7.552;2024-01-10T12:43:34;100945.34;;;0.10;86.00
68941;BME280;55982;51.476;7.552;2024-01-10T12:46:06;100950.06;;;0.25;87.08